sensor_id;sensor_type;location;lat;lon;timestamp;pressure;altitude;pressure_sealevel;temperature;humidity
14232;BME280;7200;52.194;9.900;2023-05-24T00:00:40;101019.66;;;8.84;100.00
14232;BME280;7200;52.194;9.900;2023-05-24T00:03:06;101016.97;;;8.85;100.00
14232;BME280;7200;52.194;9.900;2023-05-24T00:05:31;101008.56;;;8.66;100.00
14232;BME280;7200;52.194;9.900;2023-05-24T00:07:57;101030.09;;;8.87;100.00
14232;BME280;7200;52.194;9.900;2023-05-24T00:10:23;101030.72;;;9.00;100.00
14232;BME280;7200;52.194;9.900;2023-05-24T00:12:48;101027.38;;;8.93;100.00
14232;BME280;7200;52.194;9.900;2023-05-24T00:15:14;101022.19;;;8.87;100.00
14232;BME280;7200;52.194;9.900;2023-05-24T00:17:39;101029.84;;;9.01;100.00
14232;BME280;7200;52.194;9.900;2023-05-24T00:20:10;101038.31;;;9.13;100.00
14232;BME280;7200;52.194;9.900;2023-05-24T00:22:36;101030.41;;;9.15;100.00
14232;BME280;7200;52.194;9.900;2023-05-24T00:25:02;101025.13;;;9.15;100.00
14232;BME280;7200;52.194;9.900;2023-05-24T00:27:27;101020.03;;;9.07;100.00
14232;BME280;7200;52.194;9.900;2023-05-24T00:29:53;101026.81;;;9.19;100.00
14232;BME280;7200;52.194;9.900;2023-05-24T00:32:18;101032.41;;;9.44;100.00
14232;BME280;7200;52.194;9.900;2023-05-24T00:34:43;101017.03;;;9.24;100.00
14232;BME280;7200;52.194;9.900;2023-05-24T00:37:09;101001.47;;;9.13;100.00
14232;BME280;7200;52.194;9.900;2023-05-24T00:39:34;100999.78;;;9.11;100.00
14232;BME280;7200;52.194;9.900;2023-05-24T00:41:59;101003.06;;;9.22;100.00
14232;BME280;7200;52.194;9.900;2023-05-24T00:44:25;101009.22;;;9.21;100.00
14232;BME280;7200;52.194;9.900;2023-05-24T00:46:50;101002.28;;;9.17;100.00
14232;BME280;7200;52.194;9.900;2023-05-24T00:49:16;101013.38;;;9.31;100.00
14232;BME280;7200;52.194;9.900;2023-05-24T00:51:41;101007.34;;;9.26;100.00
14232;BME280;7200;52.194;9.900;2023-05-24T00:54:06;101015.13;;;9.32;100.00
14232;BME280;7200;52.194;9.900;2023-05-24T00:56:32;101015.81;;;9.41;100.00
14232;BME280;7200;52.194;9.900;2023-05-24T00:58:58;101016.69;;;9.40;100.00
14232;BME280;7200;52.194;9.900;2023-05-24T01:01:24;101004.63;;;9.31;100.00
14232;BME280;7200;52.194;9.900;2023-05-24T01:03:53;100999.75;;;9.12;100.00
14232;BME280;7200;52.194;9.900;2023-05-24T01:06:19;101013.53;;;9.25;100.00
14232;BME280;7200;52.194;9.900;2023-05-24T01:08:56;101017.53;;;9.42;100.00
14232;BME280;7200;52.194;9.900;2023-05-24T01:16:52;100998.13;;;9.07;100.00
14232;BME280;7200;52.194;9.900;2023-05-24T01:19:35;101023.09;;;9.29;100.00
14232;BME280;7200;52.194;9.900;2023-05-24T01:25:06;100998.78;;;9.16;100.00
14232;BME280;7200;52.194;9.900;2023-05-24T01:27:35;101007.59;;;9.15;100.00
14232;BME280;7200;52.194;9.900;2023-05-24T01:30:02;100999.56;;;9.22;100.00
14232;BME280;7200;52.194;9.900;2023-05-24T01:32:28;101003.88;;;9.24;100.00
14232;BME280;7200;52.194;9.900;2023-05-24T01:34:54;100996.09;;;9.20;100.00
14232;BME280;7200;52.194;9.900;2023-05-24T01:37:19;100989.94;;;9.19;100.00
14232;BME280;7200;52.194;9.900;2023-05-24T01:39:45;100999.34;;;9.31;100.00
14232;BME280;7200;52.194;9.900;2023-05-24T01:42:48;101000.88;;;9.41;100.00
14232;BME280;7200;52.194;9.900;2023-05-24T01:45:31;100998.59;;;9.26;100.00
14232;BME280;7200;52.194;9.900;2023-05-24T01:48:18;100998.44;;;9.32;100.00
14232;BME280;7200;52.194;9.900;2023-05-24T01:50:47;101002.78;;;9.34;100.00
14232;BME280;7200;52.194;9.900;2023-05-24T01:53:18;101006.13;;;9.41;100.00
14232;BME280;7200;52.194;9.900;2023-05-24T01:55:47;101002.66;;;9.41;100.00
14232;BME280;7200;52.194;9.900;2023-05-24T01:58:15;101000.16;;;9.34;100.00
14232;BME280;7200;52.194;9.900;2023-05-24T02:00:41;100984.41;;;9.31;100.00
14232;BME280;7200;52.194;9.900;2023-05-24T02:03:07;100993.06;;;9.38;100.00
14232;BME280;7200;52.194;9.900;2023-05-24T02:05:33;100979.16;;;9.31;100.00
14232;BME280;7200;52.194;9.900;2023-05-24T02:07:58;100993.00;;;9.40;100.00
14232;BME280;7200;52.194;9.900;2023-05-24T02:10:24;100984.19;;;9.42;100.00
14232;BME280;7200;52.194;9.900;2023-05-24T02:12:49;100978.16;;;9.37;100.00
14232;BME280;7200;52.194;9.900;2023-05-24T02:15:15;100965.47;;;9.15;100.00
14232;BME280;7200;52.194;9.900;2023-05-24T02:17:41;100980.28;;;9.21;100.00
14232;BME280;7200;52.194;9.900;2023-05-24T02:20:07;100986.22;;;9.29;100.00
14232;BME280;7200;52.194;9.900;2023-05-24T02:22:32;100986.88;;;9.39;100.00
14232;BME280;7200;52.194;9.900;2023-05-24T02:24:57;100974.84;;;9.29;100.00
14232;BME280;7200;52.194;9.900;2023-05-24T02:27:23;100977.47;;;9.29;100.00
14232;BME280;7200;52.194;9.900;2023-05-24T02:29:48;100970.28;;;9.35;100.00
14232;BME280;7200;52.194;9.900;2023-05-24T02:32:13;100960.06;;;9.22;100.00
14232;BME280;7200;52.194;9.900;2023-05-24T02:34:39;100964.41;;;9.23;100.00
14232;BME280;7200;52.194;9.900;2023-05-24T02:37:04;100955.19;;;9.05;100.00
14232;BME280;7200;52.194;9.900;2023-05-24T02:39:30;100963.03;;;9.06;100.00
14232;BME280;7200;52.194;9.900;2023-05-24T02:41:55;100968.38;;;9.03;100.00
14232;BME280;7200;52.194;9.900;2023-05-24T02:44:20;100947.78;;;8.82;100.00
14232;BME280;7200;52.194;9.900;2023-05-24T02:46:45;100964.16;;;8.94;100.00
14232;BME280;7200;52.194;9.900;2023-05-24T02:49:11;100963.28;;;8.94;100.00
14232;BME280;7200;52.194;9.900;2023-05-24T02:51:36;100964.97;;;8.96;100.00
14232;BME280;7200;52.194;9.900;2023-05-24T02:54:02;100965.97;;;8.91;100.00
14232;BME280;7200;52.194;9.900;2023-05-24T02:56:27;100972.16;;;8.90;100.00
14232;BME280;7200;52.194;9.900;2023-05-24T02:58:53;100979.28;;;8.83;100.00
14232;BME280;7200;52.194;9.900;2023-05-24T03:01:20;100972.34;;;8.81;100.00
14232;BME280;7200;52.194;9.900;2023-05-24T03:03:45;100966.28;;;8.75;100.00
14232;BME280;7200;52.194;9.900;2023-05-24T03:06:11;100977.47;;;8.87;100.00
14232;BME280;7200;52.194;9.900;2023-05-24T03:08:38;100983.84;;;8.76;100.00
14232;BME280;7200;52.194;9.900;2023-05-24T03:11:04;100983.00;;;8.74;100.00
14232;BME280;7200;52.194;9.900;2023-05-24T03:13:29;100986.31;;;8.84;100.00
14232;BME280;7200;52.194;9.900;2023-05-24T03:15:54;100990.72;;;8.82;100.00
14232;BME280;7200;52.194;9.900;2023-05-24T03:18:20;100983.84;;;8.76;100.00
14232;BME280;7200;52.194;9.900;2023-05-24T03:20:46;100992.28;;;8.91;100.00
14232;BME280;7200;52.194;9.900;2023-05-24T03:23:11;100997.34;;;9.02;100.00
14232;BME280;7200;52.194;9.900;2023-05-24T03:25:36;100992.09;;;9.00;100.00
14232;BME280;7200;52.194;9.900;2023-05-24T03:28:02;100975.09;;;8.74;100.00
14232;BME280;7200;52.194;9.900;2023-05-24T03:30:27;100982.88;;;8.79;100.00
14232;BME280;7200;52.194;9.900;2023-05-24T03:32:53;100989.13;;;8.73;100.00
14232;BME280;7200;52.194;9.900;2023-05-24T03:35:18;101004.53;;;8.93;100.00
14232;BME280;7200;52.194;9.900;2023-05-24T03:37:44;101006.25;;;8.94;100.00
14232;BME280;7200;52.194;9.900;2023-05-24T03:40:10;100993.28;;;8.85;100.00
14232;BME280;7200;52.194;9.900;2023-05-24T03:42:35;100995.13;;;8.82;100.00
14232;BME280;7200;52.194;9.900;2023-05-24T03:45:00;100998.53;;;8.85;100.00
14232;BME280;7200;52.194;9.900;2023-05-24T03:47:25;100998.41;;;8.93;100.00
14232;BME280;7200;52.194;9.900;2023-05-24T03:49:51;101004.41;;;9.00;100.00
14232;BME280;7200;52.194;9.900;2023-05-24T03:52:16;101005.41;;;8.94;100.00
14232;BME280;7200;52.194;9.900;2023-05-24T03:54:41;101007.81;;;9.05;100.00
14232;BME280;7200;52.194;9.900;2023-05-24T03:57:07;101009.53;;;9.06;100.00
14232;BME280;7200;52.194;9.900;2023-05-24T03:59:32;101023.97;;;9.28;100.00
14232;BME280;7200;52.194;9.900;2023-05-24T04:01:57;101015.53;;;9.14;100.00
14232;BME280;7200;52.194;9.900;2023-05-24T04:04:23;101008.69;;;9.05;100.00
14232;BME280;7200;52.194;9.900;2023-05-24T04:06:48;101029.03;;;9.38;100.00
14232;BME280;7200;52.194;9.900;2023-05-24T04:09:13;101019.31;;;9.41;100.00
14232;BME280;7200;52.194;9.900;2023-05-24T04:11:39;101022.97;;;9.34;100.00
14232;BME280;7200;52.194;9.900;2023-05-24T04:14:05;101007.50;;;9.19;100.00
14232;BME280;7200;52.194;9.900;2023-05-24T04:16:31;101014.00;;;9.43;100.00
14232;BME280;7200;52.194;9.900;2023-05-24T04:18:58;101014.00;;;9.44;100.00
14232;BME280;7200;52.194;9.900;2023-05-24T04:21:25;101014.81;;;9.46;100.00
14232;BME280;7200;52.194;9.900;2023-05-24T04:23:50;101005.34;;;9.38;100.00
14232;BME280;7200;52.194;9.900;2023-05-24T04:26:15;101017.09;;;9.62;100.00
14232;BME280;7200;52.194;9.900;2023-05-24T04:28:41;101006.09;;;9.44;100.00
14232;BME280;7200;52.194;9.900;2023-05-24T04:31:07;101017.91;;;9.65;100.00
14232;BME280;7200;52.194;9.900;2023-05-24T04:33:33;101013.88;;;9.86;100.00
14232;BME280;7200;52.194;9.900;2023-05-24T04:35:59;101007.09;;;9.76;100.00
14232;BME280;7200;52.194;9.900;2023-05-24T04:38:26;101009.63;;;9.81;100.00
14232;BME280;7200;52.194;9.900;2023-05-24T04:40:54;101012.28;;;9.79;100.00
14232;BME280;7200;52.194;9.900;2023-05-24T04:43:20;101009.84;;;9.71;100.00
14232;BME280;7200;52.194;9.900;2023-05-24T04:45:46;101022.66;;;9.87;100.00
14232;BME280;7200;52.194;9.900;2023-05-24T04:48:12;101022.91;;;9.76;100.00
14232;BME280;7200;52.194;9.900;2023-05-24T04:50:37;101026.34;;;9.80;100.00
14232;BME280;7200;52.194;9.900;2023-05-24T04:53:02;101031.50;;;9.84;100.00
14232;BME280;7200;52.194;9.900;2023-05-24T04:55:30;101028.03;;;9.82;100.00
14232;BME280;7200;52.194;9.900;2023-05-24T04:57:56;101029.47;;;9.96;100.00
14232;BME280;7200;52.194;9.900;2023-05-24T05:00:22;101032.16;;;9.92;100.00
14232;BME280;7200;52.194;9.900;2023-05-24T05:02:47;101034.38;;;10.11;100.00
14232;BME280;7200;52.194;9.900;2023-05-24T05:05:12;101018.22;;;9.89;100.00
14232;BME280;7200;52.194;9.900;2023-05-24T05:07:38;101039.66;;;10.09;100.00
14232;BME280;7200;52.194;9.900;2023-05-24T05:10:05;101024.53;;;9.82;100.00
14232;BME280;7200;52.194;9.900;2023-05-24T05:12:30;101041.41;;;10.10;100.00
14232;BME280;7200;52.194;9.900;2023-05-24T05:14:56;101027.09;;;10.21;100.00
14232;BME280;7200;52.194;9.900;2023-05-24T05:17:21;101036.53;;;10.29;100.00
14232;BME280;7200;52.194;9.900;2023-05-24T05:19:46;101016.88;;;10.08;100.00
14232;BME280;7200;52.194;9.900;2023-05-24T05:22:12;101021.69;;;10.27;100.00
14232;BME280;7200;52.194;9.900;2023-05-24T05:24:37;101016.47;;;10.24;100.00
14232;BME280;7200;52.194;9.900;2023-05-24T05:27:02;101031.81;;;10.44;100.00
14232;BME280;7200;52.194;9.900;2023-05-24T05:29:27;101019.78;;;10.32;100.00
14232;BME280;7200;52.194;9.900;2023-05-24T05:31:53;101024.03;;;10.38;100.00
14232;BME280;7200;52.194;9.900;2023-05-24T05:34:18;101014.19;;;10.46;100.00
14232;BME280;7200;52.194;9.900;2023-05-24T05:36:45;101026.19;;;10.56;100.00
14232;BME280;7200;52.194;9.900;2023-05-24T05:39:10;101023.06;;;10.75;100.00
14232;BME280;7200;52.194;9.900;2023-05-24T05:41:39;101021.63;;;10.63;100.00
14232;BME280;7200;52.194;9.900;2023-05-24T05:44:07;101017.19;;;10.65;100.00
14232;BME280;7200;52.194;9.900;2023-05-24T05:46:33;101018.66;;;10.75;100.00
14232;BME280;7200;52.194;9.900;2023-05-24T05:48:58;101028.69;;;10.94;100.00
14232;BME280;7200;52.194;9.900;2023-05-24T05:51:23;101023.16;;;11.03;100.00
14232;BME280;7200;52.194;9.900;2023-05-24T05:53:49;101019.50;;;11.07;100.00
14232;BME280;7200;52.194;9.900;2023-05-24T05:56:15;101027.34;;;11.10;100.00
14232;BME280;7200;52.194;9.900;2023-05-24T05:58:40;101010.00;;;11.01;100.00
14232;BME280;7200;52.194;9.900;2023-05-24T06:01:05;101014.66;;;11.23;100.00
14232;BME280;7200;52.194;9.900;2023-05-24T06:03:30;101019.47;;;11.38;100.00
14232;BME280;7200;52.194;9.900;2023-05-24T06:05:56;101003.72;;;11.35;100.00
14232;BME280;7200;52.194;9.900;2023-05-24T06:08:21;101014.94;;;11.43;100.00
14232;BME280;7200;52.194;9.900;2023-05-24T06:10:46;101013.13;;;11.44;100.00
14232;BME280;7200;52.194;9.900;2023-05-24T06:13:12;101009.75;;;11.39;100.00
14232;BME280;7200;52.194;9.900;2023-05-24T06:15:37;101002.56;;;11.44;100.00
14232;BME280;7200;52.194;9.900;2023-05-24T06:18:02;101008.47;;;11.52;100.00
14232;BME280;7200;52.194;9.900;2023-05-24T06:20:28;101018.56;;;11.67;100.00
14232;BME280;7200;52.194;9.900;2023-05-24T06:22:53;101011.94;;;11.54;100.00
14232;BME280;7200;52.194;9.900;2023-05-24T06:25:19;101002.28;;;11.53;100.00
14232;BME280;7200;52.194;9.900;2023-05-24T06:27:45;100973.50;;;11.16;100.00
14232;BME280;7200;52.194;9.900;2023-05-24T06:30:11;100991.28;;;11.39;100.00
14232;BME280;7200;52.194;9.900;2023-05-24T06:32:37;101007.97;;;11.67;100.00
14232;BME280;7200;52.194;9.900;2023-05-24T06:35:02;101001.34;;;11.82;100.00
14232;BME280;7200;52.194;9.900;2023-05-24T06:37:28;100988.66;;;11.65;100.00
14232;BME280;7200;52.194;9.900;2023-05-24T06:39:55;100994.59;;;11.74;100.00
14232;BME280;7200;52.194;9.900;2023-05-24T06:42:20;100994.34;;;11.81;100.00
14232;BME280;7200;52.194;9.900;2023-05-24T06:44:46;100996.56;;;11.95;100.00
14232;BME280;7200;52.194;9.900;2023-05-24T06:47:11;100978.56;;;11.78;100.00
14232;BME280;7200;52.194;9.900;2023-05-24T06:49:36;100966.28;;;11.77;100.00
14232;BME280;7200;52.194;9.900;2023-05-24T06:52:02;100981.97;;;11.82;100.00
14232;BME280;7200;52.194;9.900;2023-05-24T06:54:27;100960.66;;;11.60;100.00
14232;BME280;7200;52.194;9.900;2023-05-24T06:56:52;100991.31;;;11.94;100.00
14232;BME280;7200;52.194;9.900;2023-05-24T06:59:18;101003.28;;;12.05;100.00
14232;BME280;7200;52.194;9.900;2023-05-24T07:01:43;101021.13;;;12.51;100.00
14232;BME280;7200;52.194;9.900;2023-05-24T07:04:08;100991.41;;;12.42;100.00
14232;BME280;7200;52.194;9.900;2023-05-24T07:06:34;100997.66;;;12.41;100.00
14232;BME280;7200;52.194;9.900;2023-05-24T07:09:00;100992.56;;;12.60;100.00
14232;BME280;7200;52.194;9.900;2023-05-24T07:11:28;101007.44;;;12.88;100.00
14232;BME280;7200;52.194;9.900;2023-05-24T07:13:55;101004.28;;;13.02;100.00
14232;BME280;7200;52.194;9.900;2023-05-24T07:16:20;100977.97;;;12.49;100.00
14232;BME280;7200;52.194;9.900;2023-05-24T07:18:46;100994.66;;;12.76;100.00
14232;BME280;7200;52.194;9.900;2023-05-24T07:21:11;100962.31;;;12.17;100.00
14232;BME280;7200;52.194;9.900;2023-05-24T07:23:36;100979.44;;;12.32;100.00
14232;BME280;7200;52.194;9.900;2023-05-24T07:26:02;100973.41;;;12.29;100.00
14232;BME280;7200;52.194;9.900;2023-05-24T07:28:28;100996.09;;;12.36;100.00
14232;BME280;7200;52.194;9.900;2023-05-24T07:30:54;101009.84;;;12.71;100.00
14232;BME280;7200;52.194;9.900;2023-05-24T07:33:19;100962.41;;;12.39;100.00
14232;BME280;7200;52.194;9.900;2023-05-24T07:35:44;100977.38;;;12.15;100.00
14232;BME280;7200;52.194;9.900;2023-05-24T07:38:15;100979.47;;;12.05;100.00
14232;BME280;7200;52.194;9.900;2023-05-24T07:40:40;100982.69;;;11.87;100.00
14232;BME280;7200;52.194;9.900;2023-05-24T07:43:06;100984.00;;;12.02;100.00
14232;BME280;7200;52.194;9.900;2023-05-24T07:45:31;100988.00;;;12.14;100.00
14232;BME280;7200;52.194;9.900;2023-05-24T07:47:56;100998.72;;;12.36;100.00
14232;BME280;7200;52.194;9.900;2023-05-24T07:50:22;101015.66;;;12.80;100.00
14232;BME280;7200;52.194;9.900;2023-05-24T07:52:47;100989.78;;;12.63;100.00
14232;BME280;7200;52.194;9.900;2023-05-24T07:55:14;101015.78;;;13.01;100.00
14232;BME280;7200;52.194;9.900;2023-05-24T07:57:39;101000.03;;;12.98;100.00
14232;BME280;7200;52.194;9.900;2023-05-24T08:00:05;100993.91;;;12.96;100.00
14232;BME280;7200;52.194;9.900;2023-05-24T08:02:40;101010.69;;;12.96;100.00
14232;BME280;7200;52.194;9.900;2023-05-24T08:05:05;100986.38;;;12.60;100.00
14232;BME280;7200;52.194;9.900;2023-05-24T08:07:33;100988.06;;;12.37;100.00
14232;BME280;7200;52.194;9.900;2023-05-24T08:09:59;101000.38;;;12.38;100.00
14232;BME280;7200;52.194;9.900;2023-05-24T08:12:24;101007.06;;;12.49;100.00
14232;BME280;7200;52.194;9.900;2023-05-24T08:14:50;101012.00;;;12.59;100.00
14232;BME280;7200;52.194;9.900;2023-05-24T08:17:15;101021.66;;;12.85;100.00
14232;BME280;7200;52.194;9.900;2023-05-24T08:19:40;101035.31;;;13.22;100.00
14232;BME280;7200;52.194;9.900;2023-05-24T08:22:05;101001.28;;;12.88;100.00
14232;BME280;7200;52.194;9.900;2023-05-24T08:24:31;100990.81;;;12.59;100.00
14232;BME280;7200;52.194;9.900;2023-05-24T08:26:56;100995.63;;;12.48;100.00
14232;BME280;7200;52.194;9.900;2023-05-24T08:29:22;101009.13;;;12.65;100.00
14232;BME280;7200;52.194;9.900;2023-05-24T08:31:48;100988.88;;;12.39;100.00
14232;BME280;7200;52.194;9.900;2023-05-24T08:34:13;101024.13;;;12.90;100.00
14232;BME280;7200;52.194;9.900;2023-05-24T08:36:40;101018.38;;;13.02;100.00
14232;BME280;7200;52.194;9.900;2023-05-24T08:39:07;101017.50;;;12.78;100.00
14232;BME280;7200;52.194;9.900;2023-05-24T08:41:33;100986.75;;;12.24;100.00
14232;BME280;7200;52.194;9.900;2023-05-24T08:44:04;100998.09;;;12.02;100.00
14232;BME280;7200;52.194;9.900;2023-05-24T08:46:30;101037.81;;;12.01;100.00
14232;BME280;7200;52.194;9.900;2023-05-24T08:48:57;101041.78;;;11.86;100.00
14232;BME280;7200;52.194;9.900;2023-05-24T08:51:23;101081.47;;;11.84;100.00
14232;BME280;7200;52.194;9.900;2023-05-24T08:53:51;101101.81;;;11.82;100.00
14232;BME280;7200;52.194;9.900;2023-05-24T08:56:17;101112.41;;;11.81;100.00
14232;BME280;7200;52.194;9.900;2023-05-24T08:58:43;101120.19;;;11.87;100.00
14232;BME280;7200;52.194;9.900;2023-05-24T09:01:10;101142.16;;;11.89;100.00
14232;BME280;7200;52.194;9.900;2023-05-24T09:03:37;101138.16;;;11.76;100.00
14232;BME280;7200;52.194;9.900;2023-05-24T09:06:04;101135.50;;;11.46;100.00
14232;BME280;7200;52.194;9.900;2023-05-24T09:08:30;101147.63;;;11.53;100.00
14232;BME280;7200;52.194;9.900;2023-05-24T09:10:59;101149.53;;;11.48;100.00
14232;BME280;7200;52.194;9.900;2023-05-24T09:13:25;101164.50;;;11.49;100.00
14232;BME280;7200;52.194;9.900;2023-05-24T09:15:52;101165.38;;;11.48;100.00
14232;BME280;7200;52.194;9.900;2023-05-24T09:18:17;101162.81;;;11.45;100.00
14232;BME280;7200;52.194;9.900;2023-05-24T09:20:42;101170.50;;;11.54;100.00
14232;BME280;7200;52.194;9.900;2023-05-24T09:23:08;101164.41;;;11.50;100.00
14232;BME280;7200;52.194;9.900;2023-05-24T09:25:33;101178.13;;;11.65;100.00
14232;BME280;7200;52.194;9.900;2023-05-24T09:28:04;101180.31;;;11.80;100.00
14232;BME280;7200;52.194;9.900;2023-05-24T09:30:30;101162.56;;;11.54;100.00
14232;BME280;7200;52.194;9.900;2023-05-24T09:32:59;101174.09;;;11.52;100.00
14232;BME280;7200;52.194;9.900;2023-05-24T09:35:26;101174.69;;;11.61;100.00
14232;BME280;7200;52.194;9.900;2023-05-24T09:37:56;101184.19;;;11.68;100.00
14232;BME280;7200;52.194;9.900;2023-05-24T09:40:22;101199.13;;;12.01;100.00
14232;BME280;7200;52.194;9.900;2023-05-24T09:42:48;101195.34;;;12.10;100.00
14232;BME280;7200;52.194;9.900;2023-05-24T09:45:16;101179.84;;;11.97;100.00
14232;BME280;7200;52.194;9.900;2023-05-24T09:47:42;101155.03;;;11.72;100.00
14232;BME280;7200;52.194;9.900;2023-05-24T09:50:16;101176.09;;;12.04;100.00
14232;BME280;7200;52.194;9.900;2023-05-24T09:52:42;101166.84;;;11.90;100.00
14232;BME280;7200;52.194;9.900;2023-05-24T09:55:17;101169.78;;;12.08;100.00
14232;BME280;7200;52.194;9.900;2023-05-24T09:57:44;101168.31;;;12.00;100.00
14232;BME280;7200;52.194;9.900;2023-05-24T10:00:10;101174.69;;;12.22;100.00
14232;BME280;7200;52.194;9.900;2023-05-24T10:02:42;101178.03;;;12.27;100.00
14232;BME280;7200;52.194;9.900;2023-05-24T10:05:09;101153.97;;;12.35;100.00
14232;BME280;7200;52.194;9.900;2023-05-24T10:07:36;101161.94;;;12.34;100.00
14232;BME280;7200;52.194;9.900;2023-05-24T10:10:03;101175.34;;;12.56;100.00
14232;BME280;7200;52.194;9.900;2023-05-24T10:12:29;101166.38;;;12.60;100.00
14232;BME280;7200;52.194;9.900;2023-05-24T10:14:55;101151.75;;;12.50;100.00
14232;BME280;7200;52.194;9.900;2023-05-24T10:17:22;101154.63;;;12.69;100.00
14232;BME280;7200;52.194;9.900;2023-05-24T10:19:48;101154.19;;;12.56;100.00
14232;BME280;7200;52.194;9.900;2023-05-24T10:22:14;101153.41;;;12.52;100.00
14232;BME280;7200;52.194;9.900;2023-05-24T10:24:45;101145.75;;;12.43;100.00
14232;BME280;7200;52.194;9.900;2023-05-24T10:27:15;101171.03;;;12.80;100.00
14232;BME280;7200;52.194;9.900;2023-05-24T10:32:12;101162.56;;;12.69;100.00
14232;BME280;7200;52.194;9.900;2023-05-24T10:34:40;101140.06;;;12.29;100.00
14232;BME280;7200;52.194;9.900;2023-05-24T10:37:06;101145.97;;;12.37;100.00
14232;BME280;7200;52.194;9.900;2023-05-24T10:39:33;101158.66;;;12.54;100.00
14232;BME280;7200;52.194;9.900;2023-05-24T10:42:06;101175.78;;;12.70;100.00
14232;BME280;7200;52.194;9.900;2023-05-24T10:44:32;101185.94;;;13.09;100.00
14232;BME280;7200;52.194;9.900;2023-05-24T10:47:10;101149.13;;;12.75;100.00
14232;BME280;7200;52.194;9.900;2023-05-24T10:49:49;101144.84;;;12.71;100.00
14232;BME280;7200;52.194;9.900;2023-05-24T10:52:16;101148.53;;;12.66;100.00
14232;BME280;7200;52.194;9.900;2023-05-24T10:55:07;101145.59;;;12.49;100.00
14232;BME280;7200;52.194;9.900;2023-05-24T10:57:34;101163.38;;;12.71;100.00
14232;BME280;7200;52.194;9.900;2023-05-24T11:02:47;101172.88;;;12.78;100.00
14232;BME280;7200;52.194;9.900;2023-05-24T11:05:13;101161.56;;;12.46;100.00
14232;BME280;7200;52.194;9.900;2023-05-24T11:07:43;101154.97;;;12.31;100.00
14232;BME280;7200;52.194;9.900;2023-05-24T11:10:13;101171.94;;;12.52;100.00
14232;BME280;7200;52.194;9.900;2023-05-24T11:12:39;101171.47;;;12.39;100.00
14232;BME280;7200;52.194;9.900;2023-05-24T11:15:07;101164.09;;;12.22;100.00
14232;BME280;7200;52.194;9.900;2023-05-24T11:20:31;101184.66;;;12.41;100.00
14232;BME280;7200;52.194;9.900;2023-05-24T11:22:57;101223.25;;;12.75;100.00
14232;BME280;7200;52.194;9.900;2023-05-24T11:25:24;101206.38;;;12.51;100.00
14232;BME280;7200;52.194;9.900;2023-05-24T11:27:50;101210.59;;;12.30;100.00
14232;BME280;7200;52.194;9.900;2023-05-24T11:30:16;101234.06;;;12.40;100.00
14232;BME280;7200;52.194;9.900;2023-05-24T11:32:46;101236.03;;;12.34;100.00
14232;BME280;7200;52.194;9.900;2023-05-24T11:35:12;101238.31;;;12.46;100.00
14232;BME280;7200;52.194;9.900;2023-05-24T11:37:38;101251.78;;;12.93;100.00
14232;BME280;7200;52.194;9.900;2023-05-24T11:40:05;101250.16;;;13.16;100.00
14232;BME280;7200;52.194;9.900;2023-05-24T11:42:34;101229.78;;;13.18;100.00
14232;BME280;7200;52.194;9.900;2023-05-24T11:45:06;101208.59;;;12.91;100.00
14232;BME280;7200;52.194;9.900;2023-05-24T11:47:38;101218.31;;;13.17;100.00
14232;BME280;7200;52.194;9.900;2023-05-24T11:50:05;101211.66;;;13.32;100.00
14232;BME280;7200;52.194;9.900;2023-05-24T11:52:31;101204.22;;;13.42;100.00
14232;BME280;7200;52.194;9.900;2023-05-24T11:54:56;101215.22;;;13.80;100.00
14232;BME280;7200;52.194;9.900;2023-05-24T11:57:29;101212.06;;;13.94;100.00
14232;BME280;7200;52.194;9.900;2023-05-24T12:00:01;101181.69;;;13.54;100.00
14232;BME280;7200;52.194;9.900;2023-05-24T12:02:28;101181.34;;;13.39;100.00
14232;BME280;7200;52.194;9.900;2023-05-24T12:05:04;101182.44;;;13.34;100.00
14232;BME280;7200;52.194;9.900;2023-05-24T12:07:30;101174.53;;;13.32;100.00
14232;BME280;7200;52.194;9.900;2023-05-24T12:09:55;101177.72;;;13.42;100.00
14232;BME280;7200;52.194;9.900;2023-05-24T12:12:20;101175.53;;;13.53;100.00
14232;BME280;7200;52.194;9.900;2023-05-24T12:14:46;101171.63;;;13.63;100.00
14232;BME280;7200;52.194;9.900;2023-05-24T12:17:13;101194.59;;;14.10;100.00
14232;BME280;7200;52.194;9.900;2023-05-24T12:19:42;101170.16;;;14.02;100.00
14232;BME280;7200;52.194;9.900;2023-05-24T12:22:27;101154.16;;;13.81;100.00
14232;BME280;7200;52.194;9.900;2023-05-24T12:24:53;101155.09;;;14.02;100.00
14232;BME280;7200;52.194;9.900;2023-05-24T12:27:19;101151.75;;;13.97;100.00
14232;BME280;7200;52.194;9.900;2023-05-24T12:29:45;101125.94;;;13.57;100.00
14232;BME280;7200;52.194;9.900;2023-05-24T12:32:10;101144.09;;;13.68;100.00
14232;BME280;7200;52.194;9.900;2023-05-24T12:34:42;101158.75;;;13.76;100.00
14232;BME280;7200;52.194;9.900;2023-05-24T12:37:08;101140.16;;;13.54;100.00
14232;BME280;7200;52.194;9.900;2023-05-24T12:39:35;101122.13;;;13.15;100.00
14232;BME280;7200;52.194;9.900;2023-05-24T12:42:01;101148.28;;;13.50;100.00
14232;BME280;7200;52.194;9.900;2023-05-24T12:44:35;101168.81;;;13.68;100.00
14232;BME280;7200;52.194;9.900;2023-05-24T12:47:03;101155.84;;;13.60;100.00
14232;BME280;7200;52.194;9.900;2023-05-24T12:49:29;101165.13;;;13.72;100.00
14232;BME280;7200;52.194;9.900;2023-05-24T12:51:55;101156.91;;;13.78;100.00
14232;BME280;7200;52.194;9.900;2023-05-24T12:54:22;101183.31;;;14.27;100.00
14232;BME280;7200;52.194;9.900;2023-05-24T12:56:48;101160.00;;;14.35;100.00
14232;BME280;7200;52.194;9.900;2023-05-24T12:59:14;101169.19;;;14.71;100.00
14232;BME280;7200;52.194;9.900;2023-05-24T13:01:39;101155.53;;;14.80;100.00
14232;BME280;7200;52.194;9.900;2023-05-24T13:04:05;101160.00;;;15.21;100.00
14232;BME280;7200;52.194;9.900;2023-05-24T13:06:30;101118.16;;;15.05;100.00
14232;BME280;7200;52.194;9.900;2023-05-24T13:08:56;101146.75;;;15.58;100.00